Time;durP1;ratioP1;P1;durP2;ratioP2;P2;SDS_P1;SDS_P2;PMS_P1;PMS_P2;Temp;Humidity;BMP_temperature;BMP_pressure;BME280_temperature;BME280_humidity;BME280_pressure;Samples;Min_cycle;Max_cycle;Signal;HPM_P1;HPM_P2
2021/11/08 00:02:17;;;;;;;40.78;6.55;;;8.20;99.90;;;;;;5092174;28;20032;-60
2021/11/08 00:04:43;;;;;;;26.83;7.80;;;8.20;99.90;;;;;;5085857;28;20036;-59
2021/11/08 00:07:09;;;;;;;28.88;5.65;;;8.20;99.90;;;;;;5090718;28;20512;-60
2021/11/08 00:09:35;;;;;;;30.35;5.70;;;8.20;99.90;;;;;;5090431;28;20016;-60
2021/11/08 00:12:01;;;;;;;34.38;5.97;;;8.10;99.90;;;;;;5087733;28;20028;-57
2021/11/08 00:14:27;;;;;;;37.33;7.00;;;8.20;99.90;;;;;;5082729;28;20043;-60
2021/11/08 00:22:00;;;;;;;35.65;7.22;;;8.20;99.90;;;;;;5088844;28;20024;-59
2021/11/08 00:24:27;;;;;;;47.03;8.23;;;8.10;99.90;;;;;;5100558;28;20032;-59
2021/11/08 00:26:54;;;;;;;31.73;6.80;;;8.20;99.90;;;;;;5084498;28;20074;-58
2021/11/08 00:29:19;;;;;;;26.70;5.88;;;8.20;99.90;;;;;;5089664;28;20061;-61
2021/11/08 00:31:45;;;;;;;33.00;6.65;;;8.30;99.90;;;;;;5088952;28;20052;-60
2021/11/08 00:34:11;;;;;;;35.55;6.43;;;8.30;99.90;;;;;;5089601;28;20028;-61
2021/11/08 00:36:37;;;;;;;34.38;5.93;;;8.30;99.90;;;;;;5088572;28;20485;-61
2021/11/08 00:39:04;;;;;;;31.25;6.65;;;8.30;99.90;;;;;;5090579;28;20087;-60
2021/11/08 00:41:30;;;;;;;35.20;6.82;;;8.30;99.90;;;;;;5086700;28;20040;-60
2021/11/08 00:43:57;;;;;;;34.78;6.97;;;8.40;99.90;;;;;;5084750;28;20032;-61
2021/11/08 00:46:22;;;;;;;36.95;6.97;;;8.40;99.90;;;;;;5081049;28;20048;-60
2021/11/08 00:48:50;;;;;;;29.98;6.00;;;8.40;99.90;;;;;;5088748;28;20032;-61
2021/11/08 00:51:15;;;;;;;25.60;6.85;;;8.40;99.90;;;;;;5087508;28;20027;-59
2021/11/08 00:53:41;;;;;;;39.63;7.43;;;8.40;99.90;;;;;;5087688;28;20433;-60
2021/11/08 00:56:12;;;;;;;31.60;6.18;;;8.50;99.90;;;;;;5086984;28;20470;-60
2021/11/08 00:58:40;;;;;;;45.63;8.88;;;8.40;99.90;;;;;;5090008;28;20060;-60
2021/11/08 01:01:08;;;;;;;31.75;6.63;;;8.40;99.90;;;;;;5084519;28;20016;-59
2021/11/08 01:03:39;;;;;;;30.63;6.80;;;8.40;99.90;;;;;;5092828;28;20554;-60
2021/11/08 01:06:05;;;;;;;29.33;7.20;;;8.40;99.90;;;;;;5087596;28;20061;-58
2021/11/08 01:08:31;;;;;;;35.28;8.68;;;8.40;99.90;;;;;;5089180;28;20043;-61
2021/11/08 01:10:57;;;;;;;35.80;7.18;;;8.40;99.90;;;;;;5091762;28;20094;-60
2021/11/08 01:13:24;;;;;;;40.70;7.40;;;8.40;99.90;;;;;;5085609;28;20024;-60
2021/11/08 01:15:55;;;;;;;29.58;6.88;;;8.30;99.90;;;;;;5087337;28;20398;-59
2021/11/08 01:18:21;;;;;;;34.22;7.88;;;8.30;99.90;;;;;;5089805;28;20024;-61
2021/11/08 01:20:48;;;;;;;33.20;7.93;;;8.30;99.90;;;;;;5089793;28;20103;-61
2021/11/08 01:23:16;;;;;;;47.55;9.38;;;8.30;99.90;;;;;;5087737;28;20024;-60
2021/11/08 01:25:43;;;;;;;42.25;7.38;;;8.30;99.90;;;;;;5087996;28;20024;-61
2021/11/08 01:28:10;;;;;;;37.17;8.05;;;8.20;99.90;;;;;;5089264;28;20020;-61
2021/11/08 01:30:36;;;;;;;30.13;6.85;;;8.30;99.90;;;;;;5089631;28;20024;-61
2021/11/08 01:33:08;;;;;;;46.70;9.13;;;8.20;99.90;;;;;;5089160;28;20089;-60
2021/11/08 01:35:40;;;;;;;47.40;8.23;;;8.10;99.90;;;;;;5078370;28;20020;-61
2021/11/08 01:38:12;;;;;;;38.92;9.05;;;8.10;99.90;;;;;;5085907;28;20035;-61
2021/11/08 01:40:40;;;;;;;34.22;8.52;;;8.00;99.90;;;;;;5090481;28;20500;-61
2021/11/08 01:43:08;;;;;;;48.92;9.20;;;8.00;99.90;;;;;;5088557;28;20490;-61
2021/11/08 01:45:34;;;;;;;36.05;8.65;;;7.90;99.90;;;;;;5083553;28;20237;-61
2021/11/08 01:48:00;;;;;;;31.23;8.55;;;7.80;99.90;;;;;;5087526;28;20031;-61
2021/11/08 01:50:27;;;;;;;53.13;9.48;;;7.80;99.90;;;;;;5082236;28;20028;-61
2021/11/08 01:52:54;;;;;;;41.97;8.15;;;7.70;99.90;;;;;;5087031;28;20462;-61
2021/11/08 01:55:21;;;;;;;43.35;9.32;;;7.60;99.90;;;;;;5087809;28;20067;-60
2021/11/08 01:57:48;;;;;;;54.97;10.23;;;7.50;99.90;;;;;;5076853;28;20025;-60
2021/11/08 02:00:16;;;;;;;40.00;8.70;;;7.40;99.90;;;;;;5089777;28;20507;-61
2021/11/08 02:02:42;;;;;;;32.22;7.40;;;7.30;99.90;;;;;;5085428;28;20505;-61
2021/11/08 02:05:10;;;;;;;51.85;9.15;;;7.10;99.90;;;;;;5088569;28;20042;-61
2021/11/08 02:07:36;;;;;;;37.53;7.68;;;7.10;99.90;;;;;;5088981;28;20016;-61
2021/11/08 02:10:05;;;;;;;39.63;7.40;;;7.00;99.90;;;;;;5083900;28;20055;-61
2021/11/08 02:12:32;;;;;;;30.23;7.35;;;7.00;99.90;;;;;;5086143;28;20059;-61
2021/11/08 02:14:59;;;;;;;25.63;7.00;;;6.90;99.90;;;;;;5081633;28;20028;-60
2021/11/08 02:17:24;;;;;;;28.90;7.00;;;6.90;99.90;;;;;;5088018;28;20393;-60
2021/11/08 02:19:55;;;;;;;33.25;7.60;;;6.90;99.90;;;;;;5090048;28;20031;-61
2021/11/08 02:22:22;;;;;;;39.22;7.35;;;7.00;99.90;;;;;;5083118;28;20024;-60
2021/11/08 02:24:48;;;;;;;37.38;7.47;;;7.00;99.90;;;;;;5080975;28;20036;-59
2021/11/08 02:27:16;;;;;;;36.28;7.38;;;7.00;99.90;;;;;;5087661;28;20398;-59
2021/11/08 02:29:42;;;;;;;30.80;7.38;;;7.10;99.90;;;;;;5088434;28;20254;-61
2021/11/08 02:32:08;;;;;;;45.30;8.13;;;7.30;99.90;;;;;;5087181;28;20028;-60
2021/11/08 02:34:34;;;;;;;36.08;6.97;;;7.40;99.90;;;;;;5084941;28;20016;-61
2021/11/08 02:36:59;;;;;;;46.22;7.70;;;7.50;99.90;;;;;;5082427;28;20040;-61
2021/11/08 02:39:34;;;;;;;37.78;8.25;;;7.60;99.90;;;;;;5085726;28;20078;-60
2021/11/08 02:42:00;;;;;;;36.78;7.30;;;7.70;99.90;;;;;;5103636;28;20433;-59
2021/11/08 02:44:26;;;;;;;38.92;8.35;;;7.80;99.90;;;;;;5079401;28;20039;-60
2021/11/08 02:46:53;;;;;;;46.67;8.88;;;7.90;99.90;;;;;;5076504;28;20028;-60
2021/11/08 02:49:24;;;;;;;31.67;6.82;;;7.90;99.90;;;;;;5084612;28;20425;-60
2021/11/08 02:51:59;;;;;;;26.63;6.97;;;8.00;99.90;;;;;;5081264;28;20139;-61
2021/11/08 02:54:31;;;;;;;46.22;7.95;;;8.00;99.90;;;;;;5077110;28;20097;-60
2021/11/08 02:56:57;;;;;;;39.38;6.75;;;8.00;99.90;;;;;;5085599;28;20051;-60
2021/11/08 02:59:25;;;;;;;34.55;6.97;;;8.10;99.90;;;;;;5078140;28;20107;-60
2021/11/08 03:01:52;;;;;;;37.53;7.80;;;8.10;99.90;;;;;;5084838;28;20521;-60
2021/11/08 03:04:23;;;;;;;32.55;7.43;;;8.10;99.90;;;;;;5080516;28;20028;-59
2021/11/08 03:06:48;;;;;;;36.30;7.53;;;8.20;99.90;;;;;;5072725;28;20082;-62
2021/11/08 03:09:18;;;;;;;48.72;7.63;;;8.20;99.90;;;;;;5084070;28;20016;-62
2021/11/08 03:11:44;;;;;;;47.88;7.63;;;8.20;99.90;;;;;;5077027;28;20028;-61
2021/11/08 03:14:14;;;;;;;48.92;8.25;;;8.20;99.90;;;;;;5083632;28;20111;-61
2021/11/08 03:16:48;;;;;;;41.25;7.43;;;8.20;99.90;;;;;;5076099;28;20024;-61
2021/11/08 03:19:36;;;;;;;26.83;5.75;;;8.20;99.90;;;;;;5083812;28;20024;-61
2021/11/08 03:22:07;;;;;;;41.75;6.43;;;8.20;99.90;;;;;;5072488;28;20035;-61
2021/11/08 03:24:50;;;;;;;28.88;6.22;;;8.20;99.90;;;;;;5078342;28;20458;-61
2021/11/08 03:27:27;;;;;;;43.15;6.93;;;8.20;99.90;;;;;;5082451;28;20020;-59
2021/11/08 03:29:53;;;;;;;37.33;6.93;;;8.20;99.90;;;;;;5083150;28;20493;-59
2021/11/08 03:32:21;;;;;;;50.60;7.70;;;8.20;99.90;;;;;;5078768;28;20028;-61
2021/11/08 03:34:59;;;;;;;37.92;6.65;;;8.20;99.90;;;;;;5083976;28;20026;-61
2021/11/08 03:37:25;;;;;;;39.72;7.35;;;8.30;99.90;;;;;;5081817;28;20040;-61
2021/11/08 03:39:51;;;;;;;41.67;9.15;;;8.30;99.90;;;;;;5074897;22;20529;-58
2021/11/08 03:42:18;;;;;;;26.33;6.72;;;8.30;99.90;;;;;;5044069;28;20021;-58
2021/11/08 03:44:45;;;;;;;30.52;7.07;;;8.30;99.90;;;;;;5042035;28;20411;-59
2021/11/08 03:47:11;;;;;;;52.08;7.95;;;8.30;99.90;;;;;;5043890;28;20111;-59
2021/11/08 03:49:37;;;;;;;46.85;7.20;;;8.30;99.90;;;;;;5040029;28;20416;-58
2021/11/08 03:52:03;;;;;;;40.80;7.22;;;8.30;99.90;;;;;;5041814;28;20366;-58
2021/11/08 03:54:29;;;;;;;49.35;7.43;;;8.30;99.90;;;;;;5039546;28;20036;-57
2021/11/08 03:56:55;;;;;;;46.80;7.20;;;8.40;99.90;;;;;;5040160;28;20498;-57
2021/11/08 03:59:21;;;;;;;35.75;7.57;;;8.40;99.90;;;;;;5041731;28;20760;-59
2021/11/08 04:01:47;;;;;;;35.85;7.65;;;8.40;99.90;;;;;;5041724;28;20025;-57
2021/11/08 04:04:13;;;;;;;47.45;8.20;;;8.40;99.90;;;;;;5036821;28;20072;-56
2021/11/08 04:06:41;;;;;;;40.45;7.72;;;8.40;99.90;;;;;;5046692;28;20052;-58
2021/11/08 04:09:09;;;;;;;42.58;9.27;;;8.50;99.90;;;;;;5037657;28;20104;-59
2021/11/08 04:11:35;;;;;;;51.63;8.18;;;8.40;99.90;;;;;;5044469;28;20017;-58
2021/11/08 04:14:03;;;;;;;38.78;7.70;;;8.40;99.90;;;;;;5037959;28;20108;-56
2021/11/08 04:16:30;;;;;;;50.65;8.05;;;8.50;99.90;;;;;;5035915;28;20111;-60
2021/11/08 04:18:57;;;;;;;46.35;7.80;;;8.50;99.90;;;;;;5035677;28;20471;-55
2021/11/08 04:21:25;;;;;;;46.85;9.18;;;8.50;99.90;;;;;;5044914;28;20087;-55
2021/11/08 04:23:51;;;;;;;44.55;7.47;;;8.50;99.90;;;;;;5040513;28;20029;-56
2021/11/08 04:26:23;;;;;;;42.55;8.77;;;8.50;99.90;;;;;;5043360;28;20400;-55
2021/11/08 04:28:53;;;;;;;38.28;8.63;;;8.50;99.90;;;;;;5024542;28;20437;-58
2021/11/08 04:31:19;;;;;;;25.65;6.60;;;8.50;99.90;;;;;;5043257;28;20028;-56
2021/11/08 04:33:50;;;;;;;34.28;6.72;;;8.50;99.90;;;;;;5025585;28;20502;-57
2021/11/08 04:41:41;;;;;;;43.90;8.48;;;8.60;99.90;;;;;;5039943;28;20037;-56
2021/11/08 04:49:21;;;;;;;32.75;8.43;;;8.60;99.90;;;;;;5040912;28;20487;-57
2021/11/08 05:21:59;;;;;;;41.58;8.50;;;8.40;99.90;;;;;;5042906;28;20107;-57
2021/11/08 05:24:35;;;;;;;42.17;8.07;;;8.30;99.90;;;;;;5036464;28;20022;-58
2021/11/08 05:32:26;;;;;;;;;;;8.40;99.90;;;;;;5037045;28;20131;-59
2021/11/08 05:34:52;;;;;;;53.60;7.72;;;8.40;99.90;;;;;;5035712;28;19909;-58
2021/11/08 05:37:18;;;;;;;41.75;8.20;;;8.40;99.90;;;;;;5036635;28;20032;-58
2021/11/08 05:39:54;;;;;;;34.45;8.55;;;8.40;99.90;;;;;;5037934;28;20040;-55
2021/11/08 05:42:21;;;;;;;40.97;9.52;;;8.40;99.90;;;;;;5041637;28;20026;-60
2021/11/08 05:44:48;;;;;;;45.10;9.05;;;8.40;99.90;;;;;;5037780;28;20061;-54
2021/11/08 05:47:14;;;;;;;41.03;9.13;;;8.40;99.90;;;;;;5038723;28;20167;-56
2021/11/08 05:49:40;;;;;;;54.88;9.30;;;8.40;99.90;;;;;;5035973;28;20030;-55
2021/11/08 05:52:06;;;;;;;43.75;8.82;;;8.50;99.90;;;;;;5040774;28;20048;-55
2021/11/08 05:54:32;;;;;;;45.35;9.65;;;8.50;99.90;;;;;;5036135;28;20120;-54
2021/11/08 05:57:15;;;;;;;35.60;8.68;;;8.50;99.90;;;;;;5035301;28;20292;-56
2021/11/08 06:51:35;;;;;;;30.10;7.47;;;8.30;99.90;;;;;;5041079;28;20029;-59
2021/11/08 06:54:02;;;;;;;39.03;8.00;;;8.30;99.90;;;;;;5038736;28;20060;-59
2021/11/08 06:56:32;;;;;;;36.88;8.02;;;8.30;99.90;;;;;;5042056;28;20036;-59
2021/11/08 06:58:57;;;;;;;37.58;7.22;;;8.20;99.90;;;;;;5029137;28;20055;-59
2021/11/08 07:01:24;;;;;;;42.75;8.38;;;8.20;99.90;;;;;;5035161;28;20454;-60
2021/11/08 07:03:49;;;;;;;34.10;8.90;;;8.20;99.90;;;;;;5036106;28;20032;-61
2021/11/08 07:06:15;;;;;;;40.50;8.82;;;8.20;99.90;;;;;;5038396;28;20037;-60
2021/11/08 07:08:41;;;;;;;43.83;9.00;;;8.20;99.90;;;;;;5045194;28;20029;-59
2021/11/08 07:11:06;;;;;;;44.00;8.18;;;8.20;99.90;;;;;;5042051;28;20387;-59
2021/11/08 07:13:32;;;;;;;33.10;9.02;;;8.20;99.90;;;;;;5045812;28;20099;-59
2021/11/08 07:15:57;;;;;;;44.60;9.70;;;8.30;99.90;;;;;;5040760;28;20105;-60
2021/11/08 07:18:23;;;;;;;35.40;9.05;;;8.30;99.90;;;;;;5043062;28;20108;-59
2021/11/08 07:20:49;;;;;;;39.90;10.30;;;8.30;99.90;;;;;;5037543;28;20025;-61
2021/11/08 07:23:15;;;;;;;49.70;10.95;;;8.40;99.90;;;;;;5043480;28;20076;-60
2021/11/08 07:25:42;;;;;;;44.17;11.32;;;8.40;99.90;;;;;;5037220;28;20037;-62
2021/11/08 07:28:14;;;;;;;48.40;9.68;;;8.40;99.90;;;;;;5036413;28;20112;-57
2021/11/08 07:30:43;;;;;;;35.47;8.82;;;8.50;99.90;;;;;;5036491;28;20075;-59
2021/11/08 07:33:08;;;;;;;52.65;11.77;;;8.50;99.90;;;;;;5037596;28;20022;-59
2021/11/08 07:35:34;;;;;;;34.15;8.68;;;8.60;99.90;;;;;;5041841;28;20029;-59
2021/11/08 07:37:59;;;;;;;46.35;9.75;;;8.60;99.90;;;;;;5037455;28;20108;-59
2021/11/08 07:40:26;;;;;;;45.80;9.25;;;8.60;99.90;;;;;;5049078;28;20037;-58
2021/11/08 07:42:52;;;;;;;42.53;9.60;;;8.60;99.90;;;;;;5038621;28;20079;-61
2021/11/08 07:45:17;;;;;;;37.75;9.23;;;8.70;99.90;;;;;;5044832;28;20021;-60
2021/11/08 07:47:43;;;;;;;48.25;9.75;;;8.80;99.90;;;;;;5036165;28;20049;-59
2021/11/08 07:50:09;;;;;;;45.83;9.20;;;8.80;99.90;;;;;;5039652;28;20024;-59
2021/11/08 07:52:35;;;;;;;37.05;7.78;;;8.80;99.90;;;;;;5039503;28;20025;-61
2021/11/08 07:55:01;;;;;;;43.50;8.82;;;8.80;99.90;;;;;;5043602;28;20036;-59
2021/11/08 07:57:26;;;;;;;33.70;9.38;;;8.80;99.90;;;;;;5035178;28;20033;-59
2021/11/08 07:59:52;;;;;;;32.42;8.95;;;8.90;99.90;;;;;;5039833;28;20052;-58
2021/11/08 08:02:17;;;;;;;47.22;9.45;;;8.90;99.90;;;;;;5031455;28;20650;-61
2021/11/08 08:04:43;;;;;;;32.70;8.23;;;9.00;99.90;;;;;;5046028;28;20112;-59
2021/11/08 08:07:09;;;;;;;47.33;9.80;;;9.00;99.90;;;;;;5034432;28;20024;-60
2021/11/08 08:09:35;;;;;;;53.97;11.32;;;9.00;99.90;;;;;;5040239;28;20022;-60
2021/11/08 08:12:01;;;;;;;44.60;11.50;;;9.00;99.90;;;;;;5036437;28;20052;-59
2021/11/08 08:14:27;;;;;;;60.25;10.35;;;9.00;99.90;;;;;;5038549;28;20032;-60
2021/11/08 08:16:53;;;;;;;49.97;9.55;;;9.10;99.90;;;;;;5038856;28;20033;-60
2021/11/08 08:19:20;;;;;;;41.88;9.13;;;9.10;99.90;;;;;;5050677;28;20031;-59
2021/11/08 08:21:46;;;;;;;37.05;7.88;;;9.10;99.90;;;;;;5042294;28;20105;-59
2021/11/08 08:24:12;;;;;;;36.20;8.38;;;9.10;99.90;;;;;;5035008;28;20030;-59
2021/11/08 08:26:40;;;;;;;37.47;8.63;;;9.10;99.90;;;;;;5039139;28;20462;-59
2021/11/08 08:29:07;;;;;;;42.03;9.05;;;9.10;99.90;;;;;;5037224;28;20021;-58
2021/11/08 08:31:39;;;;;;;52.45;10.52;;;9.20;99.90;;;;;;5035369;28;20037;-59
2021/11/08 08:34:06;;;;;;;40.08;7.80;;;9.20;99.90;;;;;;5032763;28;20025;-59
2021/11/08 08:36:32;;;;;;;48.28;10.70;;;9.20;99.90;;;;;;5032769;28;20436;-59
2021/11/08 08:38:58;;;;;;;41.33;10.80;;;9.20;99.90;;;;;;5038123;28;20075;-58
2021/11/08 08:41:23;;;;;;;60.33;11.85;;;9.30;99.90;;;;;;5035139;28;20030;-59
2021/11/08 08:43:50;;;;;;;47.63;11.27;;;9.20;99.90;;;;;;5032725;28;20480;-61
2021/11/08 08:46:16;;;;;;;54.35;9.23;;;9.30;99.90;;;;;;5037501;28;20020;-59
2021/11/08 08:48:43;;;;;;;46.13;8.98;;;9.20;99.90;;;;;;5045625;28;20029;-59
2021/11/08 08:51:09;;;;;;;39.88;8.80;;;9.30;99.90;;;;;;5048395;28;20037;-58
2021/11/08 08:53:36;;;;;;;36.22;8.43;;;9.40;99.90;;;;;;5047279;28;20082;-59
2021/11/08 08:56:03;;;;;;;51.10;10.10;;;9.40;99.90;;;;;;5039373;28;20487;-59
2021/11/08 08:58:30;;;;;;;46.53;8.93;;;9.40;99.90;;;;;;5039918;28;20025;-59
2021/11/08 09:00:56;;;;;;;39.10;8.40;;;9.50;99.90;;;;;;5041662;28;20074;-59
2021/11/08 09:03:22;;;;;;;65.50;10.98;;;9.50;99.90;;;;;;5041754;28;20411;-60
2021/11/08 09:05:50;;;;;;;31.67;8.35;;;9.50;99.90;;;;;;5037349;28;20032;-59
2021/11/08 09:08:17;;;;;;;55.20;9.00;;;9.70;99.90;;;;;;5037892;28;20040;-60
2021/11/08 09:10:43;;;;;;;45.47;10.15;;;9.70;99.90;;;;;;5049634;28;20036;-57
2021/11/08 09:13:09;;;;;;;41.35;9.75;;;9.70;99.90;;;;;;5051952;28;20029;-59
2021/11/08 09:15:35;;;;;;;57.28;10.13;;;9.70;99.90;;;;;;5047715;28;20108;-59
2021/11/08 09:18:03;;;;;;;54.30;8.90;;;9.70;99.90;;;;;;5047374;28;20033;-58
2021/11/08 09:20:30;;;;;;;41.33;9.30;;;9.70;99.90;;;;;;5044639;28;20036;-59
2021/11/08 09:22:56;;;;;;;37.17;8.55;;;9.80;99.90;;;;;;5046099;28;20530;-60
2021/11/08 09:25:24;;;;;;;35.22;9.35;;;9.80;99.90;;;;;;5047739;28;20068;-57
2021/11/08 09:27:52;;;;;;;48.72;11.00;;;9.90;99.90;;;;;;5042870;28;20040;-59
2021/11/08 09:30:21;;;;;;;35.83;8.60;;;10.00;99.90;;;;;;5048007;28;20478;-59
2021/11/08 09:32:48;;;;;;;35.60;9.07;;;10.10;99.90;;;;;;5048846;28;20082;-60
2021/11/08 09:35:14;;;;;;;43.75;9.40;;;10.10;99.90;;;;;;5038712;28;20087;-54
2021/11/08 09:37:44;;;;;;;46.38;9.25;;;10.20;99.90;;;;;;5047286;28;20035;-58
2021/11/08 09:40:16;;;;;;;55.53;11.02;;;10.30;99.90;;;;;;5090054;23;20060;-63
2021/11/08 09:42:42;;;;;;;38.17;8.73;;;10.30;99.90;;;;;;5080499;28;20028;-63
2021/11/08 09:45:10;;;;;;;46.17;9.05;;;10.20;99.90;;;;;;5081479;28;20363;-62
2021/11/08 09:47:36;;;;;;;54.20;9.82;;;10.30;99.90;;;;;;5087054;28;20580;-62
2021/11/08 09:50:05;;;;;;;44.88;8.73;;;10.30;99.90;;;;;;5079966;28;20021;-63
2021/11/08 09:52:37;;;;;;;43.47;9.05;;;10.20;99.90;;;;;;5077925;28;20063;-62
2021/11/08 09:55:04;;;;;;;51.63;10.38;;;10.30;99.90;;;;;;5084354;28;20036;-62
2021/11/08 09:57:30;;;;;;;36.05;8.32;;;10.40;99.90;;;;;;5089505;28;20119;-61
2021/11/08 09:59:55;;;;;;;36.75;8.65;;;10.40;99.90;;;;;;5089257;28;20099;-60
2021/11/08 10:02:21;;;;;;;48.00;9.75;;;10.50;99.90;;;;;;5089655;28;20446;-62
2021/11/08 10:04:48;;;;;;;33.75;8.75;;;10.50;99.90;;;;;;5080883;28;20036;-62
2021/11/08 10:07:15;;;;;;;51.95;10.40;;;10.60;99.90;;;;;;5085436;28;20020;-63
2021/11/08 10:09:41;;;;;;;62.08;9.52;;;10.60;99.90;;;;;;5077279;28;20070;-63
2021/11/08 10:12:10;;;;;;;57.25;10.27;;;10.60;99.90;;;;;;5089676;28;20094;-62
2021/11/08 10:14:37;;;;;;;43.90;10.75;;;10.60;99.90;;;;;;5077275;28;20067;-60
2021/11/08 10:17:04;;;;;;;46.88;9.77;;;10.60;99.90;;;;;;5082881;28;20036;-63
2021/11/08 10:19:35;;;;;;;52.38;10.52;;;10.70;99.90;;;;;;5089788;28;20040;-61
2021/11/08 10:22:03;;;;;;;38.63;9.35;;;10.70;99.90;;;;;;5085426;28;20044;-61
2021/11/08 10:24:32;;;;;;;54.42;9.82;;;10.70;99.90;;;;;;5085870;28;20069;-62
2021/11/08 10:27:00;;;;;;;39.03;10.25;;;10.80;99.90;;;;;;5076062;28;20032;-62
2021/11/08 10:29:27;;;;;;;46.60;10.52;;;10.80;99.90;;;;;;5082512;28;20112;-62
2021/11/08 10:31:56;;;;;;;55.45;9.75;;;10.90;99.90;;;;;;5081348;28;20020;-62
2021/11/08 10:34:22;;;;;;;55.33;10.25;;;10.90;99.90;;;;;;5086000;28;20032;-62
2021/11/08 10:37:02;;;;;;;47.33;9.88;;;10.90;99.90;;;;;;5085666;28;20051;-63
2021/11/08 10:39:33;;;;;;;42.75;9.18;;;10.90;99.90;;;;;;5076749;28;20122;-63
2021/11/08 10:41:59;;;;;;;52.05;9.88;;;10.90;99.90;;;;;;5068923;28;20539;-63
2021/11/08 10:44:24;;;;;;;51.22;11.57;;;11.00;99.90;;;;;;5085025;28;20024;-63
2021/11/08 10:47:02;;;;;;;43.53;10.10;;;11.10;99.90;;;;;;5080595;28;20065;-62
2021/11/08 10:49:33;;;;;;;48.78;11.18;;;11.00;99.90;;;;;;5078740;28;20052;-63
2021/11/08 10:52:00;;;;;;;49.97;9.13;;;11.10;99.90;;;;;;5078774;28;20093;-63
2021/11/08 10:54:30;;;;;;;45.92;10.35;;;11.20;99.90;;;;;;5077987;28;20493;-63
2021/11/08 10:57:03;;;;;;;50.83;9.48;;;11.20;99.90;;;;;;5082003;28;20066;-63
2021/11/08 10:59:32;;;;;;;40.63;8.65;;;11.20;99.90;;;;;;5083420;28;20028;-63
2021/11/08 11:02:00;;;;;;;42.83;9.05;;;11.10;99.90;;;;;;5081954;28;20032;-63
2021/11/08 11:04:46;;;;;;;47.28;9.63;;;11.20;99.90;;;;;;5084861;28;20046;-62
2021/11/08 11:07:19;;;;;;;41.72;7.85;;;11.30;99.90;;;;;;5080995;28;20556;-64
2021/11/08 11:09:45;;;;;;;60.10;9.87;;;11.40;99.90;;;;;;5081781;28;20051;-63
2021/11/08 11:12:23;;;;;;;35.13;7.72;;;11.50;99.90;;;;;;5076138;28;20324;-63
2021/11/08 11:14:59;;;;;;;55.53;8.10;;;11.60;99.90;;;;;;5078044;28;20034;-62
2021/11/08 11:17:27;;;;;;;48.47;9.32;;;11.70;99.90;;;;;;5081355;28;20063;-63
2021/11/08 11:20:02;;;;;;;71.25;10.95;;;11.60;99.90;;;;;;5073359;28;20031;-63
2021/11/08 11:22:27;;;;;;;;;;;11.60;99.90;;;;;;5073305;28;20108;-63
2021/11/08 11:24:56;;;;;;;41.83;8.90;;;11.60;99.90;;;;;;5082052;28;20006;-64
2021/11/08 11:27:24;;;;;;;38.97;7.82;;;11.60;99.90;;;;;;5074490;28;20032;-61
2021/11/08 11:29:52;;;;;;;42.38;8.38;;;11.60;99.90;;;;;;5080103;28;20432;-61
2021/11/08 11:32:25;;;;;;;51.78;9.02;;;11.70;99.90;;;;;;5076531;28;20013;-62
2021/11/08 11:34:52;;;;;;;34.70;9.18;;;11.80;99.90;;;;;;5076028;28;20065;-61
2021/11/08 11:37:20;;;;;;;52.50;8.40;;;11.80;99.90;;;;;;5070152;28;20116;-61
2021/11/08 11:39:47;;;;;;;53.67;9.00;;;11.70;99.90;;;;;;5081181;28;20039;-59
2021/11/08 11:42:13;;;;;;;41.20;7.60;;;11.70;99.90;;;;;;5076445;28;20449;-63
2021/11/08 11:44:39;;;;;;;46.15;9.07;;;11.90;99.90;;;;;;5075031;28;20024;-61
2021/11/08 11:47:16;;;;;;;43.38;8.07;;;12.00;99.90;;;;;;5076056;28;20406;-62
2021/11/08 11:49:44;;;;;;;46.20;8.30;;;12.00;99.90;;;;;;5082328;28;20111;-62
2021/11/08 11:52:10;;;;;;;43.83;7.10;;;12.30;99.90;;;;;;5078323;28;20036;-62
2021/11/08 11:54:36;;;;;;;40.88;7.28;;;12.50;99.90;;;;;;5081028;28;20393;-64
2021/11/08 11:57:03;;;;;;;47.45;7.32;;;12.60;99.90;;;;;;5086556;28;20020;-61
2021/11/08 11:59:30;;;;;;;33.35;7.15;;;12.70;99.90;;;;;;5085711;28;20439;-61
2021/11/08 12:01:56;;;;;;;38.83;6.93;;;12.80;99.90;;;;;;5086369;28;20028;-61
2021/11/08 12:04:23;;;;;;;51.13;7.20;;;12.90;99.90;;;;;;5079313;28;20039;-62
2021/11/08 12:06:52;;;;;;;54.45;11.00;;;12.60;99.90;;;;;;5084250;28;20027;-62
2021/11/08 12:09:20;;;;;;;35.13;6.35;;;12.60;99.90;;;;;;5086175;28;20028;-63
2021/11/08 12:11:53;;;;;;;35.28;6.78;;;12.50;99.90;;;;;;5084927;28;20054;-61
2021/11/08 12:14:22;;;;;;;32.88;7.13;;;12.50;99.90;;;;;;5079102;28;20487;-62
2021/11/08 12:17:14;;;;;;;31.08;6.90;;;12.40;99.90;;;;;;5082757;28;20062;-61
2021/11/08 12:19:42;;;;;;;49.22;8.95;;;12.50;99.90;;;;;;5081138;28;20498;-63
2021/11/08 12:22:23;;;;;;;33.33;6.05;;;12.30;99.90;;;;;;5077757;28;20086;-62
2021/11/08 12:25:00;;;;;;;33.63;5.97;;;12.20;99.90;;;;;;5074656;28;20032;-62
2021/11/08 12:27:38;;;;;;;43.58;6.43;;;12.30;99.90;;;;;;5088018;28;20123;-63
2021/11/08 12:30:28;;;;;;;35.03;5.88;;;12.10;99.90;;;;;;5084646;28;20374;-62
2021/11/08 12:32:58;;;;;;;36.75;6.53;;;12.10;99.90;;;;;;5088820;28;20087;-64
2021/11/08 12:35:35;;;;;;;42.53;6.82;;;12.10;99.90;;;;;;5082091;28;20032;-62
2021/11/08 12:38:15;;;;;;;32.47;6.20;;;12.10;99.90;;;;;;5079641;28;20457;-62
2021/11/08 12:40:41;;;;;;;50.70;7.32;;;12.00;99.90;;;;;;5076476;28;20024;-62
2021/11/08 12:43:08;;;;;;;36.92;7.55;;;11.90;99.90;;;;;;5084167;28;20107;-63
2021/11/08 12:45:42;;;;;;;45.35;7.18;;;11.90;99.90;;;;;;5083983;28;20380;-62
2021/11/08 12:48:13;;;;;;;32.55;6.47;;;11.90;99.90;;;;;;5086101;28;20031;-63
2021/11/08 12:50:42;;;;;;;36.95;7.50;;;11.90;99.90;;;;;;5077745;28;20025;-61
2021/11/08 12:53:25;;;;;;;46.72;6.88;;;11.90;99.90;;;;;;5084313;28;20020;-62
2021/11/08 12:55:56;;;;;;;51.60;8.07;;;11.80;99.90;;;;;;5087056;28;20029;-62
2021/11/08 12:58:35;;;;;;;36.47;6.97;;;11.80;99.90;;;;;;5087172;28;20510;-62
2021/11/08 13:01:03;;;;;;;35.13;7.03;;;11.80;99.90;;;;;;5082505;28;20125;-62
2021/11/08 13:03:36;;;;;;;41.20;7.68;;;11.80;99.90;;;;;;5080786;28;20024;-63
2021/11/08 13:06:04;;;;;;;36.40;6.72;;;11.70;99.90;;;;;;5077412;28;20039;-62
2021/11/08 13:08:30;;;;;;;51.05;7.95;;;11.70;99.90;;;;;;5081368;28;20031;-63
2021/11/08 13:11:15;;;;;;;47.67;7.63;;;11.70;99.90;;;;;;5082336;28;20056;-61
2021/11/08 13:13:56;;;;;;;;;;;11.70;99.90;;;;;;5080673;28;20477;-61
2021/11/08 13:16:35;;;;;;;38.42;6.80;;;11.70;99.90;;;;;;5087991;28;19907;-61
2021/11/08 13:19:12;;;;;;;27.08;6.45;;;11.70;99.90;;;;;;5078883;28;20103;-61
2021/11/08 13:21:38;;;;;;;46.10;7.40;;;11.80;99.90;;;;;;5082292;28;20036;-63
2021/11/08 13:24:07;;;;;;;39.63;6.38;;;11.80;99.90;;;;;;5069164;28;20044;-61
2021/11/08 13:26:33;;;;;;;45.65;6.38;;;11.80;99.90;;;;;;5084845;28;20031;-63
2021/11/08 13:29:00;;;;;;;33.60;5.60;;;11.80;99.90;;;;;;5089819;28;20496;-62
2021/11/08 13:31:27;;;;;;;37.10;7.07;;;11.70;99.90;;;;;;5080473;28;20024;-60
2021/11/08 13:33:55;;;;;;;44.67;7.53;;;11.70;99.90;;;;;;5086241;28;20489;-63
2021/11/08 13:36:21;;;;;;;36.92;6.63;;;11.70;99.90;;;;;;5089356;28;20077;-63
2021/11/08 13:38:53;;;;;;;25.65;5.13;;;11.60;99.90;;;;;;5087501;28;20016;-63
2021/11/08 13:41:27;;;;;;;32.17;6.25;;;11.60;99.90;;;;;;5090656;28;20520;-61
2021/11/08 13:44:11;;;;;;;32.15;6.88;;;11.60;99.90;;;;;;5089434;28;20081;-63
2021/11/08 13:46:39;;;;;;;;;;;11.60;99.90;;;;;;5071910;28;20028;-62
2021/11/08 13:49:13;;;;;;;29.40;6.15;;;11.70;99.90;;;;;;5087413;28;19957;-63
2021/11/08 13:51:49;;;;;;;24.38;5.20;;;11.60;99.90;;;;;;5089046;28;20245;-62
2021/11/08 13:54:41;;;;;;;29.40;5.22;;;11.70;99.90;;;;;;5082339;28;20641;-62
2021/11/08 13:57:16;;;;;;;34.17;6.10;;;11.70;99.90;;;;;;5078417;28;20090;-62
2021/11/08 13:59:45;;;;;;;40.28;6.30;;;11.70;99.90;;;;;;5086669;28;20035;-61
2021/11/08 14:02:13;;;;;;;34.63;6.80;;;11.70;99.90;;;;;;5078741;28;20023;-60
2021/11/08 14:04:41;;;;;;;34.25;6.35;;;11.70;99.90;;;;;;5087019;28;20606;-61
2021/11/08 14:07:08;;;;;;;32.10;6.70;;;11.70;99.90;;;;;;5084131;28;20060;-63
2021/11/08 14:09:35;;;;;;;24.02;5.90;;;11.70;99.90;;;;;;5080836;28;20370;-63
2021/11/08 14:12:03;;;;;;;35.50;5.65;;;11.70;99.90;;;;;;5080917;28;20031;-63
2021/11/08 14:14:34;;;;;;;40.42;6.30;;;11.70;99.90;;;;;;5084047;28;20031;-64
2021/11/08 14:17:21;;;;;;;36.30;6.32;;;11.70;99.90;;;;;;5077861;28;20395;-63
2021/11/08 14:20:09;;;;;;;34.85;7.43;;;11.60;99.90;;;;;;5087929;28;20115;-60
2021/11/08 14:22:37;;;;;;;35.20;6.80;;;11.70;99.90;;;;;;5078416;28;20501;-62
2021/11/08 14:25:07;;;;;;;35.90;5.63;;;11.60;99.90;;;;;;5076700;28;20457;-62
2021/11/08 14:27:34;;;;;;;27.00;4.18;;;11.60;99.90;;;;;;5076527;28;20028;-60
2021/11/08 14:30:11;;;;;;;26.33;4.90;;;11.60;99.90;;;;;;5076651;28;20028;-62
2021/11/08 14:32:37;;;;;;;27.15;4.68;;;11.60;99.90;;;;;;5079076;28;20034;-61
2021/11/08 14:35:08;;;;;;;25.75;4.47;;;11.70;99.90;;;;;;5086646;28;20032;-62